Time;durP1;ratioP1;P1;durP2;ratioP2;P2;SDS_P1;SDS_P2;PMS_P1;PMS_P2;Temp;Humidity;BMP_temperature;BMP_pressure;BME280_temperature;BME280_humidity;BME280_pressure;Samples;Min_cycle;Max_cycle;Signal;HPM_P1;HPM_P2
2022/06/02 00:00:07;;;;;;;11.32;8.82;;;10.30;99.90;;;;;;5067465;28;20391;-70
2022/06/02 00:02:57;;;;;;;11.43;9.32;;;10.30;99.90;;;;;;5067505;28;20124;-71
2022/06/02 00:05:50;;;;;;;12.93;9.82;;;10.30;99.90;;;;;;5068820;28;20036;-70
2022/06/02 00:08:55;;;;;;;12.60;9.75;;;10.30;99.90;;;;;;5067726;28;20135;-70
2022/06/02 00:11:52;;;;;;;15.90;9.75;;;10.30;99.90;;;;;;5049481;28;20064;-70
2022/06/02 00:14:32;;;;;;;12.88;9.68;;;10.30;99.90;;;;;;5047074;28;20037;-70
2022/06/02 00:17:19;;;;;;;13.68;9.80;;;10.20;99.90;;;;;;5056909;28;20063;-70
2022/06/02 00:19:59;;;;;;;13.50;9.90;;;10.20;99.90;;;;;;5068908;28;20049;-70
2022/06/02 00:22:48;;;;;;;13.23;10.25;;;10.20;99.90;;;;;;5067168;28;20044;-70
2022/06/02 00:25:34;;;;;;;14.88;10.63;;;10.20;99.90;;;;;;5067710;28;20049;-70
2022/06/02 00:28:15;;;;;;;;;;;10.20;99.90;;;;;;5069898;28;20045;-70
2022/06/02 00:30:56;;;;;;;13.73;10.07;;;10.20;99.90;;;;;;5068420;28;20296;-70
2022/06/02 00:33:28;;;;;;;11.93;9.68;;;10.10;99.90;;;;;;5048595;28;20041;-70
2022/06/02 00:36:00;;;;;;;13.90;10.85;;;10.10;99.90;;;;;;5048304;28;20055;-70
2022/06/02 00:38:30;;;;;;;14.35;10.40;;;10.20;99.90;;;;;;5048273;28;20041;-71
2022/06/02 00:41:25;;;;;;;11.77;10.52;;;10.00;99.90;;;;;;5048363;28;20041;-70
2022/06/02 00:44:28;;;;;;;14.18;10.40;;;10.00;99.90;;;;;;5038581;28;20052;-70
2022/06/02 00:47:01;;;;;;;14.35;10.50;;;9.90;99.90;;;;;;5068218;28;20048;-71
2022/06/02 00:49:39;;;;;;;12.82;10.55;;;9.90;99.90;;;;;;5069096;28;20386;-71
2022/06/02 00:52:13;;;;;;;12.55;10.45;;;9.90;99.90;;;;;;5066872;28;20036;-70
2022/06/02 00:58:22;;;;;;;12.77;10.70;;;9.80;99.90;;;;;;5064856;28;20045;-69
2022/06/02 01:01:18;;;;;;;15.25;11.07;;;9.80;99.90;;;;;;5047694;28;20045;-71
2022/06/02 01:03:48;;;;;;;14.70;11.70;;;9.80;99.90;;;;;;5047301;28;20041;-69
2022/06/02 01:06:23;;;;;;;14.10;10.85;;;9.80;99.90;;;;;;5047553;28;20385;-70
2022/06/02 01:09:00;;;;;;;13.77;10.87;;;9.80;99.90;;;;;;5048031;28;20055;-71
2022/06/02 01:11:38;;;;;;;13.50;11.10;;;9.70;99.90;;;;;;5063907;28;20043;-72
2022/06/02 01:14:14;;;;;;;13.05;11.43;;;9.70;99.90;;;;;;5065942;28;20044;-70
2022/06/02 01:16:48;;;;;;;;;;;10.00;99.90;;;;;;5067022;28;20051;-72
2022/06/02 01:19:35;;;;;;;16.70;11.60;;;10.10;99.90;;;;;;5067393;28;20280;-71
2022/06/02 01:22:35;;;;;;;15.80;11.27;;;9.60;99.90;;;;;;5068281;28;20048;-71
2022/06/02 01:25:13;;;;;;;13.27;11.32;;;9.70;99.90;;;;;;5068546;28;20049;-70
2022/06/02 01:28:01;;;;;;;16.35;11.30;;;9.60;99.90;;;;;;5066315;28;20075;-69
2022/06/02 01:30:38;;;;;;;13.95;11.30;;;9.60;99.90;;;;;;5047853;28;20127;-70
2022/06/02 01:33:30;;;;;;;15.10;10.90;;;9.60;99.90;;;;;;5047186;28;20041;-70
2022/06/02 01:36:23;;;;;;;16.55;11.45;;;9.50;99.90;;;;;;5064478;28;20040;-70
2022/06/02 01:39:09;;;;;;;13.15;11.20;;;9.50;99.90;;;;;;5067488;28;20053;-70
2022/06/02 01:41:37;;;;;;;15.85;12.07;;;9.50;99.90;;;;;;5067026;28;20457;-70
2022/06/02 01:44:56;;;;;;;18.02;11.60;;;9.60;99.90;;;;;;5067517;28;20472;-70
2022/06/02 01:47:42;;;;;;;17.02;11.23;;;9.40;99.90;;;;;;5065592;28;20135;-70
2022/06/02 01:50:30;;;;;;;13.02;10.55;;;9.50;99.90;;;;;;5066996;28;20416;-70
2022/06/02 01:53:26;;;;;;;15.00;10.52;;;9.60;99.90;;;;;;5070184;28;20140;-70
2022/06/02 01:56:21;;;;;;;14.37;11.30;;;10.30;99.90;;;;;;5071439;28;20104;-69
2022/06/02 01:58:56;;;;;;;12.00;10.27;;;9.40;99.90;;;;;;5069501;28;20048;-70
2022/06/02 02:01:41;;;;;;;12.93;10.65;;;9.70;99.90;;;;;;5070090;28;20067;-70
2022/06/02 02:04:33;;;;;;;14.90;10.95;;;9.30;99.90;;;;;;5071590;28;20045;-70
2022/06/02 02:07:31;;;;;;;15.23;10.93;;;9.40;99.90;;;;;;5071267;28;20076;-70
2022/06/02 02:10:26;;;;;;;14.48;11.05;;;9.40;99.90;;;;;;5050364;28;20041;-71
2022/06/02 02:13:07;;;;;;;14.27;11.25;;;9.30;99.90;;;;;;5049397;28;20426;-70
2022/06/02 02:15:39;;;;;;;13.10;11.15;;;9.30;99.90;;;;;;5067602;28;20081;-71
2022/06/02 02:18:33;;;;;;;14.88;10.73;;;9.30;99.90;;;;;;5063858;28;20088;-71
2022/06/02 02:21:13;;;;;;;13.52;10.75;;;9.30;99.90;;;;;;5033395;28;20060;-71
2022/06/02 02:23:56;;;;;;;15.25;10.75;;;9.40;99.90;;;;;;5050343;28;20048;-71
2022/06/02 02:26:36;;;;;;;13.27;10.52;;;9.30;99.90;;;;;;5051313;28;20056;-70
2022/06/02 02:29:09;;;;;;;14.70;10.40;;;9.20;99.90;;;;;;5069383;28;20044;-71
2022/06/02 02:32:03;;;;;;;15.00;10.80;;;9.20;99.90;;;;;;5069704;28;20162;-69
2022/06/02 02:34:57;;;;;;;13.05;10.10;;;9.30;99.90;;;;;;5073393;28;20040;-70
2022/06/02 02:37:27;;;;;;;12.40;9.60;;;9.20;99.90;;;;;;5070373;28;20430;-70
2022/06/02 02:40:07;;;;;;;14.50;10.25;;;9.20;99.90;;;;;;5071160;28;20048;-70
2022/06/02 02:42:39;;;;;;;14.88;9.90;;;9.80;99.90;;;;;;5069321;28;20427;-70
2022/06/02 02:45:31;;;;;;;11.88;8.95;;;9.50;99.90;;;;;;5069072;28;20040;-70
2022/06/02 02:48:15;;;;;;;12.02;9.25;;;9.20;99.90;;;;;;5068830;28;20215;-70
2022/06/02 02:50:58;;;;;;;12.02;9.25;;;9.20;99.90;;;;;;5069738;28;20189;-70
2022/06/02 02:53:35;;;;;;;13.38;9.52;;;9.20;99.90;;;;;;5070269;28;20405;-70
2022/06/02 02:56:22;;;;;;;12.32;8.77;;;9.20;99.90;;;;;;5070853;28;20050;-70
2022/06/02 02:58:55;;;;;;;12.45;9.60;;;9.20;99.90;;;;;;5057674;28;20071;-70
2022/06/02 03:01:35;;;;;;;12.05;9.05;;;9.20;99.90;;;;;;5060656;28;20071;-70
2022/06/02 03:04:19;;;;;;;11.88;8.43;;;9.30;99.90;;;;;;5069474;28;20052;-70
2022/06/02 03:06:47;;;;;;;12.70;8.98;;;9.20;99.90;;;;;;5068747;28;20055;-70
2022/06/02 03:09:44;;;;;;;13.77;8.95;;;9.30;99.90;;;;;;5070120;28;20131;-70
2022/06/02 03:12:12;;;;;;;11.10;8.77;;;9.30;99.90;;;;;;5069546;28;20045;-70
2022/06/02 03:14:47;;;;;;;11.27;9.13;;;9.30;99.90;;;;;;5068923;28;20060;-70
2022/06/02 03:17:44;;;;;;;14.45;8.55;;;9.30;99.90;;;;;;5069820;28;20044;-70
2022/06/02 03:20:54;;;;;;;11.32;9.13;;;9.20;99.90;;;;;;5068294;28;20442;-70
2022/06/02 03:23:45;;;;;;;12.32;9.35;;;9.20;99.90;;;;;;5047158;28;20172;-70
2022/06/02 03:26:21;;;;;;;11.93;9.75;;;9.20;99.90;;;;;;5068362;28;20060;-70
2022/06/02 03:29:13;;;;;;;13.07;9.20;;;9.20;99.90;;;;;;5068319;28;20090;-70
2022/06/02 03:32:20;;;;;;;14.60;9.35;;;9.20;99.90;;;;;;5069114;28;20079;-70
2022/06/02 03:35:04;;;;;;;;;;;9.20;99.90;;;;;;5068189;28;20409;-71
2022/06/02 03:37:50;;;;;;;14.73;9.65;;;9.20;99.90;;;;;;5049618;28;19921;-70
2022/06/02 03:40:53;;;;;;;11.40;9.93;;;9.10;99.90;;;;;;5049112;28;20370;-71
2022/06/02 03:43:37;;;;;;;11.38;9.50;;;9.10;99.90;;;;;;5052847;28;20044;-71
2022/06/02 03:46:13;;;;;;;13.07;9.77;;;9.10;99.90;;;;;;5060485;28;20056;-71
2022/06/02 03:49:17;;;;;;;12.32;9.52;;;9.10;99.90;;;;;;5068169;28;20033;-70
2022/06/02 03:52:11;;;;;;;15.13;9.82;;;9.10;99.90;;;;;;5009896;28;20045;-71
2022/06/02 03:55:00;;;;;;;13.63;10.25;;;9.10;99.90;;;;;;5011713;28;20405;-71
2022/06/02 03:57:29;;;;;;;12.05;9.15;;;9.10;99.90;;;;;;5060910;28;20496;-70
2022/06/02 04:00:07;;;;;;;11.68;9.23;;;9.20;99.90;;;;;;5065147;28;20048;-70
2022/06/02 04:02:39;;;;;;;12.38;9.15;;;9.20;99.90;;;;;;5065712;28;20063;-71
2022/06/02 04:05:18;;;;;;;14.13;9.18;;;9.60;99.90;;;;;;5068868;28;20036;-71
2022/06/02 04:07:50;;;;;;;15.23;9.45;;;9.30;99.90;;;;;;5069373;28;20084;-70
2022/06/02 04:10:46;;;;;;;11.30;8.98;;;9.30;99.90;;;;;;5066174;28;20040;-70
2022/06/02 04:13:39;;;;;;;11.63;8.63;;;10.30;99.90;;;;;;5056600;28;20048;-72
2022/06/02 04:16:27;;;;;;;12.40;8.70;;;9.40;99.90;;;;;;5068786;28;20106;-69
2022/06/02 04:19:00;;;;;;;11.02;7.90;;;9.40;99.90;;;;;;5068616;28;20423;-71
2022/06/02 04:21:53;;;;;;;11.30;8.73;;;9.40;99.90;;;;;;5068093;28;20040;-70
2022/06/02 04:24:40;;;;;;;11.23;8.55;;;9.50;99.90;;;;;;5067826;28;20120;-70
2022/06/02 04:27:43;;;;;;;10.95;8.30;;;9.50;99.90;;;;;;5068573;28;20053;-70
2022/06/02 04:30:44;;;;;;;10.60;7.68;;;9.50;99.90;;;;;;5058655;28;20063;-70
2022/06/02 04:33:22;;;;;;;11.95;7.65;;;9.50;99.90;;;;;;5067551;28;20037;-70
2022/06/02 04:36:13;;;;;;;10.25;7.95;;;10.00;99.90;;;;;;5058820;28;20045;-70
2022/06/02 04:38:44;;;;;;;9.70;8.25;;;9.60;99.90;;;;;;5053610;28;20041;-70
2022/06/02 04:41:25;;;;;;;12.10;7.80;;;10.70;99.90;;;;;;5068031;28;20048;-70
2022/06/02 04:43:58;;;;;;;9.75;7.45;;;9.70;99.90;;;;;;5066252;28;20499;-70
2022/06/02 04:46:39;;;;;;;10.52;8.18;;;9.80;99.90;;;;;;5068517;28;20391;-70
2022/06/02 04:49:25;;;;;;;9.30;7.30;;;9.80;99.90;;;;;;5068032;28;20485;-70
2022/06/02 04:52:02;;;;;;;;;;;11.10;99.90;;;;;;5066786;28;20382;-70
2022/06/02 04:54:45;;;;;;;;;;;9.80;99.90;;;;;;5067553;28;19927;-70
2022/06/02 04:57:39;;;;;;;10.10;8.07;;;9.80;99.90;;;;;;5067459;28;20295;-71
2022/06/02 05:00:36;;;;;;;9.73;7.43;;;9.80;99.90;;;;;;5067214;28;20052;-71
2022/06/02 05:03:12;;;;;;;9.80;6.60;;;9.90;99.90;;;;;;5064929;28;20072;-71
2022/06/02 05:06:00;;;;;;;10.27;7.20;;;10.70;99.90;;;;;;5066243;28;20036;-71
2022/06/02 05:08:26;;;;;;;9.45;6.72;;;10.00;99.90;;;;;;5067693;28;20059;-70
2022/06/02 05:11:13;;;;;;;8.95;6.72;;;10.00;99.90;;;;;;5066513;28;20487;-70
2022/06/02 05:14:17;;;;;;;8.75;6.68;;;10.10;99.90;;;;;;5066298;28;20375;-71
2022/06/02 05:17:04;;;;;;;7.15;5.38;;;10.10;99.90;;;;;;5067558;28;20041;-71
2022/06/02 05:19:35;;;;;;;10.80;5.55;;;10.20;99.90;;;;;;5067019;28;20040;-71
2022/06/02 05:22:26;;;;;;;6.75;5.28;;;10.30;99.90;;;;;;5068323;28;20048;-71
2022/06/02 05:25:13;;;;;;;9.00;5.90;;;10.40;99.90;;;;;;5061473;28;20135;-70
2022/06/02 05:28:03;;;;;;;8.63;5.65;;;10.40;99.90;;;;;;5048204;28;20040;-70
2022/06/02 05:30:39;;;;;;;7.13;5.28;;;10.60;99.90;;;;;;5064309;28;20052;-71
2022/06/02 05:33:45;;;;;;;6.55;5.32;;;10.70;99.90;;;;;;5070702;28;20135;-71
2022/06/02 05:36:23;;;;;;;8.77;5.70;;;10.70;99.90;;;;;;5071146;28;20045;-71
2022/06/02 05:39:10;;;;;;;8.95;5.40;;;10.80;99.90;;;;;;5071183;28;20049;-71
2022/06/02 05:42:10;;;;;;;9.25;5.53;;;10.80;99.90;;;;;;5070744;28;20154;-71
2022/06/02 05:45:15;;;;;;;8.73;5.00;;;10.90;99.90;;;;;;5069432;28;20052;-72
2022/06/02 05:48:10;;;;;;;8.30;4.95;;;11.60;99.90;;;;;;5052165;28;20058;-71
2022/06/02 05:50:45;;;;;;;8.32;5.00;;;11.10;99.90;;;;;;5070671;28;20128;-71
2022/06/02 05:53:22;;;;;;;6.30;4.55;;;11.30;99.90;;;;;;5071372;28;20080;-71
2022/06/02 05:56:06;;;;;;;6.10;4.53;;;11.30;99.90;;;;;;5069951;28;20052;-71
2022/06/02 05:58:44;;;;;;;8.80;4.78;;;11.40;99.90;;;;;;5065897;28;20044;-70
2022/06/02 06:01:31;;;;;;;8.30;4.78;;;11.40;99.90;;;;;;5054892;28;20083;-71
2022/06/02 06:04:38;;;;;;;7.43;4.53;;;11.40;99.90;;;;;;5070440;28;20392;-71
2022/06/02 06:07:31;;;;;;;5.63;3.85;;;11.50;99.90;;;;;;5054207;28;20110;-70
2022/06/02 06:10:17;;;;;;;8.40;4.30;;;11.70;99.90;;;;;;5076932;28;20052;-71
2022/06/02 06:13:18;;;;;;;9.25;4.15;;;11.70;99.90;;;;;;5050081;28;20041;-71
2022/06/02 06:15:47;;;;;;;6.53;3.88;;;11.70;99.90;;;;;;5048066;28;20045;-71
2022/06/02 06:18:15;;;;;;;5.75;4.03;;;11.90;99.90;;;;;;5049625;28;20385;-71
2022/06/02 06:21:05;;;;;;;5.95;3.97;;;11.80;99.90;;;;;;5048398;28;20045;-71
2022/06/02 06:23:49;;;;;;;20.35;3.78;;;11.90;99.90;;;;;;5049915;28;20069;-70
2022/06/02 06:26:41;;;;;;;4.68;3.08;;;12.00;99.90;;;;;;5050369;28;20044;-70
2022/06/02 06:29:28;;;;;;;6.30;3.30;;;12.10;99.90;;;;;;5048758;28;20489;-71
2022/06/02 06:32:03;;;;;;;5.75;3.50;;;12.10;99.90;;;;;;5049955;28;20052;-71
2022/06/02 06:34:57;;;;;;;8.70;3.45;;;12.20;99.90;;;;;;5050406;28;20052;-70
2022/06/02 06:37:47;;;;;;;4.63;2.83;;;12.30;99.90;;;;;;5050657;28;20041;-71
2022/06/02 06:40:31;;;;;;;4.68;2.95;;;12.40;99.90;;;;;;5050484;28;20379;-70
2022/06/02 06:43:27;;;;;;;4.95;3.03;;;12.50;99.90;;;;;;5049283;28;20044;-71
2022/06/02 06:46:18;;;;;;;5.63;3.30;;;12.50;99.90;;;;;;5049191;28;20860;-71
2022/06/02 06:49:03;;;;;;;5.82;3.10;;;12.60;99.90;;;;;;5049328;28;20049;-70
2022/06/02 06:51:43;;;;;;;7.25;3.10;;;13.90;99.90;;;;;;5049133;28;20045;-72
2022/06/02 06:54:20;;;;;;;6.72;3.10;;;12.90;99.90;;;;;;5049547;28;20478;-71
2022/06/02 06:57:02;;;;;;;5.45;2.97;;;13.00;99.90;;;;;;5048136;28;20056;-70
2022/06/02 06:59:55;;;;;;;6.15;2.95;;;13.30;99.90;;;;;;5048222;28;20462;-71
2022/06/02 07:02:49;;;;;;;6.07;2.92;;;13.20;99.90;;;;;;5050049;28;20044;-71
2022/06/02 07:05:23;;;;;;;5.53;2.97;;;13.50;99.90;;;;;;5048084;28;20045;-72
2022/06/02 07:08:11;;;;;;;5.32;3.15;;;13.60;99.90;;;;;;5032632;28;20049;-70
2022/06/02 07:11:04;;;;;;;5.55;3.03;;;13.90;99.90;;;;;;5049716;28;20049;-71
2022/06/02 07:13:46;;;;;;;5.63;2.72;;;14.10;99.90;;;;;;5048450;28;20041;-71
2022/06/02 07:16:38;;;;;;;5.43;2.90;;;14.20;99.90;;;;;;5049030;28;20128;-71
2022/06/02 07:19:25;;;;;;;7.50;3.72;;;14.30;99.90;;;;;;5049613;28;20079;-71
2022/06/02 07:22:13;;;;;;;8.07;2.90;;;14.40;99.90;;;;;;5056262;28;20053;-71
2022/06/02 07:25:14;;;;;;;5.63;2.80;;;14.50;99.90;;;;;;5065267;28;20477;-72
2022/06/02 07:28:10;;;;;;;6.70;3.10;;;14.60;99.90;;;;;;5068942;28;20040;-71
2022/06/02 07:30:48;;;;;;;5.40;2.60;;;14.60;99.90;;;;;;5071445;28;20049;-72
2022/06/02 07:33:51;;;;;;;5.90;2.47;;;14.70;99.90;;;;;;5069860;28;20047;-73
2022/06/02 07:36:39;;;;;;;5.38;2.30;;;14.70;99.90;;;;;;5057562;28;20064;-73
2022/06/02 07:39:24;;;;;;;5.05;2.25;;;14.80;99.90;;;;;;5049690;28;20516;-73
2022/06/02 07:42:10;;;;;;;6.57;2.28;;;14.90;99.90;;;;;;5067864;28;20049;-72
2022/06/02 07:44:55;;;;;;;4.40;2.20;;;15.00;99.90;;;;;;5067282;28;20400;-72
2022/06/02 07:47:58;;;;;;;5.00;2.28;;;15.10;99.90;;;;;;5066094;28;20048;-72
2022/06/02 07:50:28;;;;;;;3.90;2.13;;;15.30;99.90;;;;;;5066034;28;20059;-73
2022/06/02 07:52:57;;;;;;;4.45;2.10;;;15.50;99.90;;;;;;5051062;28;20053;-72
2022/06/02 07:55:29;;;;;;;4.90;2.10;;;15.60;99.90;;;;;;5047168;28;20049;-73
2022/06/02 07:58:06;;;;;;;4.60;2.10;;;15.70;99.90;;;;;;5049423;28;20049;-72
2022/06/02 08:00:43;;;;;;;4.25;1.90;;;15.90;99.90;;;;;;5048936;28;20140;-72
2022/06/02 08:03:30;;;;;;;4.60;2.00;;;15.90;99.90;;;;;;5048433;28;20040;-73
2022/06/02 08:06:05;;;;;;;6.22;2.15;;;15.90;99.90;;;;;;5047898;28;20053;-72
2022/06/02 08:09:16;;;;;;;5.82;2.95;;;15.90;99.90;;;;;;5048709;28;20084;-70
2022/06/02 08:12:05;;;;;;;9.18;2.45;;;15.90;99.90;;;;;;5056698;28;20093;-72
2022/06/02 08:14:51;;;;;;;6.25;2.30;;;16.00;99.90;;;;;;5052366;28;20193;-72
2022/06/02 08:17:23;;;;;;;5.68;2.00;;;16.20;99.90;;;;;;5068156;28;20036;-71
2022/06/02 08:19:57;;;;;;;3.97;2.03;;;16.40;99.90;;;;;;5059182;28;20049;-71
2022/06/02 08:23:00;;;;;;;3.85;2.10;;;16.60;99.90;;;;;;5068286;28;20071;-71
2022/06/02 08:25:37;;;;;;;5.15;2.00;;;16.60;99.90;;;;;;5050397;28;20044;-71
2022/06/02 08:28:11;;;;;;;3.70;1.90;;;16.50;99.90;;;;;;5067241;28;20033;-72
2022/06/02 08:30:55;;;;;;;3.58;2.00;;;16.60;99.90;;;;;;5068230;28;20044;-72
2022/06/02 08:33:49;;;;;;;6.13;2.15;;;16.70;99.90;;;;;;5067612;28;20049;-71
2022/06/02 08:36:24;;;;;;;4.55;2.10;;;16.70;99.90;;;;;;5082527;28;20041;-71
2022/06/02 08:39:03;;;;;;;4.00;2.00;;;16.70;99.90;;;;;;5066798;28;20044;-71
2022/06/02 08:41:38;;;;;;;3.33;2.15;;;16.90;99.90;;;;;;5067806;28;20056;-71
2022/06/02 08:44:28;;;;;;;3.83;2.03;;;16.90;99.90;;;;;;5066085;28;20376;-71
2022/06/02 08:46:57;;;;;;;4.95;1.92;;;16.90;99.90;;;;;;5066528;28;20048;-71
2022/06/02 08:49:59;;;;;;;7.28;2.25;;;17.10;99.90;;;;;;5066955;28;20040;-71
2022/06/02 08:53:09;;;;;;;3.83;1.80;;;17.20;99.90;;;;;;5070130;28;20052;-72
2022/06/02 08:56:13;;;;;;;5.38;2.17;;;17.30;99.90;;;;;;5049383;28;20056;-73
2022/06/02 08:58:46;;;;;;;3.97;1.85;;;17.30;99.90;;;;;;5058943;28;20058;-72
2022/06/02 09:01:49;;;;;;;3.00;1.70;;;17.50;99.90;;;;;;5067673;28;20491;-72
2022/06/02 09:04:47;;;;;;;3.22;2.00;;;17.70;99.90;;;;;;5065010;28;20077;-71
2022/06/02 09:07:31;;;;;;;4.28;1.90;;;17.90;99.90;;;;;;5061230;28;20128;-72
2022/06/02 09:10:19;;;;;;;3.65;1.75;;;17.90;99.90;;;;;;5063181;28;20408;-71
2022/06/02 09:13:03;;;;;;;4.95;2.20;;;17.90;99.90;;;;;;5076372;28;20076;-72
2022/06/02 09:15:37;;;;;;;5.22;2.10;;;18.00;99.90;;;;;;5055544;28;20085;-73
2022/06/02 09:18:16;;;;;;;6.32;2.00;;;18.00;99.90;;;;;;5058538;28;20040;-73
2022/06/02 09:21:12;;;;;;;3.17;1.80;;;18.10;99.90;;;;;;5046134;28;20385;-71
2022/06/02 09:24:00;;;;;;;5.23;2.10;;;18.00;99.90;;;;;;5046714;28;20403;-72
2022/06/02 09:27:19;;;;;;;3.58;2.13;;;18.00;99.90;;;;;;5050208;28;20033;-71
2022/06/02 09:30:07;;;;;;;4.53;2.05;;;18.20;99.90;;;;;;5054141;28;20032;-72
2022/06/02 09:32:36;;;;;;;3.20;1.90;;;18.50;99.90;;;;;;5062395;28;20083;-72
2022/06/02 09:35:28;;;;;;;4.13;1.95;;;18.70;99.90;;;;;;5066348;28;20060;-72
2022/06/02 09:38:31;;;;;;;3.42;1.80;;;19.00;99.90;;;;;;5065804;28;20103;-72
2022/06/02 09:41:29;;;;;;;4.72;1.92;;;19.00;99.90;;;;;;5065465;28;20055;-71
2022/06/02 09:44:09;;;;;;;3.28;1.70;;;19.00;99.90;;;;;;5063176;28;20110;-72
2022/06/02 09:46:47;;;;;;;5.07;1.70;;;19.00;99.90;;;;;;5046925;28;20120;-70
2022/06/02 09:49:41;;;;;;;6.43;1.92;;;19.10;99.90;;;;;;5045493;28;20041;-70
2022/06/02 09:52:38;;;;;;;2.63;1.80;;;19.30;99.90;;;;;;5067129;28;20159;-70
2022/06/02 09:55:27;;;;;;;2.85;1.63;;;19.30;99.90;;;;;;5082344;28;20044;-72
2022/06/02 09:58:12;;;;;;;4.28;1.98;;;19.10;99.90;;;;;;5045964;28;20584;-71
2022/06/02 10:00:56;;;;;;;3.53;1.77;;;19.00;99.90;;;;;;5044880;28;20053;-71
2022/06/02 10:03:44;;;;;;;3.95;1.77;;;19.10;99.90;;;;;;5058828;28;20055;-72
2022/06/02 10:06:41;;;;;;;3.97;2.10;;;19.10;99.90;;;;;;5065731;28;20094;-73
2022/06/02 10:09:41;;;;;;;5.00;1.95;;;19.00;99.90;;;;;;5066251;28;20041;-73
2022/06/02 10:15:42;;;;;;;3.90;1.92;;;18.80;99.90;;;;;;5028366;28;20409;-73
2022/06/02 10:18:17;;;;;;;3.50;1.80;;;18.60;99.90;;;;;;5066850;28;20056;-71
2022/06/02 10:21:04;;;;;;;4.00;1.90;;;18.80;99.90;;;;;;5063174;28;20041;-73
2022/06/02 10:24:08;;;;;;;4.93;1.92;;;18.90;99.90;;;;;;5069104;28;20786;-73
2022/06/02 10:27:01;;;;;;;7.65;2.03;;;19.10;99.90;;;;;;5026424;28;20559;-71
2022/06/02 10:29:48;;;;;;;4.70;1.80;;;19.50;99.90;;;;;;5063786;28;20155;-71
2022/06/02 10:32:38;;;;;;;4.47;1.80;;;19.80;99.90;;;;;;5068469;28;20098;-73
2022/06/02 10:35:42;;;;;;;2.90;1.70;;;20.00;99.90;;;;;;5065724;28;20047;-71
2022/06/02 10:38:26;;;;;;;4.00;1.80;;;20.20;99.90;;;;;;5066420;28;20094;-72
2022/06/02 10:41:10;;;;;;;3.43;1.60;;;20.50;99.90;;;;;;5064089;28;20448;-71
2022/06/02 10:44:07;;;;;;;4.00;1.75;;;20.50;99.90;;;;;;5062623;28;20056;-72
2022/06/02 10:46:59;;;;;;;4.22;1.70;;;20.50;99.90;;;;;;5065604;28;20045;-72
2022/06/02 10:49:30;;;;;;;4.20;2.08;;;20.70;99.90;;;;;;5050598;28;20493;-71
2022/06/02 10:52:26;;;;;;;4.45;1.90;;;21.00;99.90;;;;;;5066617;28;20076;-71
2022/06/02 10:55:25;;;;;;;3.00;1.70;;;21.90;99.90;;;;;;5068949;28;20067;-72
2022/06/02 10:58:10;;;;;;;4.13;1.83;;;23.70;98.10;;;;;;5069630;28;20143;-72
2022/06/02 11:01:18;;;;;;;3.38;1.92;;;24.40;96.20;;;;;;5069472;28;20467;-71
2022/06/02 11:03:46;;;;;;;5.03;1.98;;;24.20;96.00;;;;;;5069541;28;20137;-71
2022/06/02 11:06:12;;;;;;;5.07;1.60;;;26.10;94.80;;;;;;5069242;28;20125;-72
2022/06/02 11:09:08;;;;;;;2.88;1.70;;;27.60;91.00;;;;;;5069608;28;20501;-74
2022/06/02 11:11:47;;;;;;;5.72;2.10;;;27.10;91.00;;;;;;5070155;28;20401;-72
2022/06/02 11:14:40;;;;;;;5.25;1.90;;;26.10;91.40;;;;;;5068907;28;20044;-74
2022/06/02 11:17:18;;;;;;;3.35;1.70;;;27.30;91.70;;;;;;5068709;28;20128;-73
2022/06/02 11:20:28;;;;;;;4.90;1.90;;;28.90;89.90;;;;;;5049264;28;20032;-71
2022/06/02 11:23:09;;;;;;;3.58;1.58;;;28.70;86.40;;;;;;5049026;28;20045;-72
2022/06/02 11:25:52;;;;;;;2.45;1.63;;;28.60;83.70;;;;;;5066406;28;20048;-72
2022/06/02 11:28:36;;;;;;;5.57;1.60;;;28.70;82.80;;;;;;5070878;28;20128;-72
2022/06/02 11:31:35;;;;;;;5.38;1.70;;;28.80;82.70;;;;;;5070336;28;20393;-73
2022/06/02 11:34:26;;;;;;;3.60;1.80;;;28.70;83.90;;;;;;5070992;28;20376;-73
2022/06/02 11:37:29;;;;;;;3.42;1.55;;;29.00;83.90;;;;;;5060064;28;20553;-74
2022/06/02 11:40:13;;;;;;;5.13;1.90;;;29.00;83.40;;;;;;5069252;28;20083;-74
2022/06/02 11:42:53;;;;;;;3.33;1.50;;;29.20;85.40;;;;;;5068380;28;20084;-73
2022/06/02 11:45:19;;;;;;;4.60;1.60;;;30.30;80.80;;;;;;5067401;28;20044;-73
2022/06/02 11:48:22;;;;;;;4.75;1.42;;;30.50;77.80;;;;;;5067768;28;20045;-73
2022/06/02 11:51:25;;;;;;;2.28;1.30;;;29.70;76.90;;;;;;5064874;28;20060;-73
2022/06/02 11:54:31;;;;;;;3.72;1.85;;;29.30;76.40;;;;;;5048777;28;20045;-73
2022/06/02 11:57:24;;;;;;;4.97;1.92;;;28.50;78.30;;;;;;5049255;28;20083;-73
2022/06/02 12:00:25;;;;;;;5.05;1.70;;;27.40;80.20;;;;;;5049378;28;20053;-73
2022/06/02 12:03:21;;;;;;;4.63;1.80;;;28.00;80.70;;;;;;5070417;28;20476;-73
2022/06/02 12:06:02;;;;;;;4.63;1.70;;;28.30;80.40;;;;;;5065925;28;20461;-73
2022/06/02 12:08:31;;;;;;;3.63;1.50;;;30.20;79.60;;;;;;5066509;28;20045;-73
2022/06/02 12:11:22;;;;;;;4.60;1.67;;;32.30;74.40;;;;;;5067744;28;20438;-73
2022/06/02 12:14:12;;;;;;;3.75;1.60;;;33.60;71.30;;;;;;5065930;28;20218;-73
2022/06/02 12:16:49;;;;;;;4.68;1.50;;;32.40;68.60;;;;;;5067849;28;20135;-73
2022/06/02 12:19:21;;;;;;;2.67;1.52;;;31.50;68.50;;;;;;5066636;28;20120;-73
2022/06/02 12:21:58;;;;;;;5.50;1.67;;;30.70;69.00;;;;;;5066708;28;20080;-72
2022/06/02 12:24:50;;;;;;;3.22;1.60;;;29.70;70.30;;;;;;5065853;28;20497;-72
2022/06/02 12:27:31;;;;;;;3.72;1.52;;;29.20;70.70;;;;;;5066574;28;20393;-73
2022/06/02 12:30:18;;;;;;;3.65;1.80;;;28.40;71.70;;;;;;5069529;28;20132;-72
2022/06/02 12:33:14;;;;;;;5.43;1.80;;;27.60;73.20;;;;;;5067188;28;20059;-71
2022/06/02 12:35:59;;;;;;;4.93;1.60;;;26.70;74.10;;;;;;5061506;28;20052;-73
2022/06/02 12:38:33;;;;;;;2.72;1.50;;;25.80;75.40;;;;;;5046967;28;20055;-73
2022/06/02 12:41:24;;;;;;;4.65;1.63;;;25.20;77.20;;;;;;5047407;28;20389;-74
2022/06/02 12:44:18;;;;;;;3.50;1.52;;;24.70;78.20;;;;;;5046879;28;20135;-74
2022/06/02 12:47:20;;;;;;;2.20;1.60;;;24.30;80.10;;;;;;5045528;28;20095;-74
2022/06/02 12:50:07;;;;;;;4.50;1.70;;;24.00;82.80;;;;;;5048310;28;20353;-74
2022/06/02 12:53:20;;;;;;;4.55;1.60;;;23.70;85.10;;;;;;5062653;28;20198;-73
2022/06/02 12:56:12;;;;;;;4.43;1.73;;;23.40;87.60;;;;;;5044654;28;20509;-73
2022/06/02 12:59:06;;;;;;;3.28;1.65;;;23.30;90.00;;;;;;5066809;28;20051;-73
2022/06/02 13:02:01;;;;;;;4.10;1.90;;;23.40;88.60;;;;;;5069077;28;20053;-72
2022/06/02 13:04:42;;;;;;;4.20;1.80;;;23.30;90.40;;;;;;5067448;28;20378;-72
2022/06/02 13:07:45;;;;;;;3.25;1.73;;;23.00;90.50;;;;;;5067447;28;20088;-74
2022/06/02 13:10:29;;;;;;;4.43;1.70;;;22.80;91.20;;;;;;5068040;28;20037;-72
2022/06/02 13:13:10;;;;;;;4.50;1.80;;;22.70;92.10;;;;;;5067312;28;20056;-71
2022/06/02 13:15:59;;;;;;;5.18;1.63;;;22.60;93.20;;;;;;5066401;28;20051;-71
2022/06/02 13:18:33;;;;;;;4.57;2.00;;;22.30;93.70;;;;;;5066917;28;20150;-72
2022/06/02 13:21:18;;;;;;;4.15;1.58;;;22.10;94.20;;;;;;5067854;28;20044;-72
2022/06/02 13:23:49;;;;;;;4.43;1.60;;;22.00;94.20;;;;;;5066578;28;20088;-72
2022/06/02 13:27:03;;;;;;;3.55;1.80;;;22.00;94.90;;;;;;5067133;28;20044;-72
2022/06/02 13:30:01;;;;;;;4.95;1.90;;;22.30;95.90;;;;;;5046189;28;20088;-72
2022/06/02 13:33:04;;;;;;;3.95;2.00;;;22.60;96.00;;;;;;5067015;28;20052;-72
2022/06/02 13:35:49;;;;;;;2.45;1.60;;;22.70;94.90;;;;;;5067314;28;20045;-72
2022/06/02 13:38:52;;;;;;;3.78;1.80;;;22.60;95.40;;;;;;5067001;28;20049;-71
2022/06/02 13:41:51;;;;;;;3.63;1.80;;;22.50;95.50;;;;;;5067366;28;20045;-71
2022/06/02 13:44:54;;;;;;;4.32;1.73;;;22.30;95.80;;;;;;5065851;28;20131;-72
2022/06/02 13:47:57;;;;;;;3.60;1.80;;;22.10;96.20;;;;;;5066556;28;20041;-72
2022/06/02 13:50:32;;;;;;;2.78;1.52;;;22.00;96.80;;;;;;5069786;28;20079;-71
2022/06/02 13:53:13;;;;;;;3.92;1.75;;;21.90;97.10;;;;;;5069746;28;20548;-71
2022/06/02 13:58:44;;;;;;;4.60;1.88;;;22.00;97.10;;;;;;5072967;28;20071;-70
2022/06/02 14:01:28;;;;;;;4.65;1.80;;;22.00;97.20;;;;;;5072712;28;20075;-70
2022/06/02 14:04:03;;;;;;;4.15;1.60;;;22.00;97.40;;;;;;5060054;28;20128;-69
2022/06/02 14:06:35;;;;;;;3.60;1.63;;;21.90;97.10;;;;;;5071040;28;20036;-70
2022/06/02 14:09:24;;;;;;;3.63;1.80;;;21.80;97.20;;;;;;5070869;28;20044;-72
2022/06/02 14:12:17;;;;;;;2.92;1.50;;;21.70;97.30;;;;;;5073571;28;20096;-73
2022/06/02 14:14:59;;;;;;;3.92;1.65;;;21.60;97.60;;;;;;5067482;28;20061;-73
2022/06/02 14:17:33;;;;;;;3.50;1.85;;;21.60;98.10;;;;;;5057831;28;20082;-72
2022/06/02 14:20:12;;;;;;;6.95;1.73;;;21.60;98.30;;;;;;5070630;28;20045;-73
2022/06/02 14:22:37;;;;;;;3.50;1.70;;;21.60;97.50;;;;;;5052800;28;20045;-72
2022/06/02 14:25:13;;;;;;;3.25;1.90;;;21.60;97.70;;;;;;5051118;28;20048;-70
2022/06/02 14:28:16;;;;;;;3.67;1.80;;;21.60;97.70;;;;;;5052566;28;20128;-71
2022/06/02 14:31:10;;;;;;;5.53;1.98;;;21.60;98.00;;;;;;5049925;28;20128;-71
2022/06/02 14:33:43;;;;;;;3.40;1.67;;;21.50;97.90;;;;;;5049080;28;20370;-71